Skip Navigation Links Skip Navigation Links

Current Weather

Eureka, Nunavut

For information only: do not use for flight planning or navigation.
Latest weather
Observation time Monday, July 23, 2018 8:00 AM CDT
Local time Monday, July 23, 2018 8:14 AM CDT
Flight conditions Visual Meteorological Conditions
Winds
Wind direction South-Southeast (150°)
Wind speed 9 mph
Visibility 15 mi.
Sky condition
Ceiling unlimited
Cloud layer few clouds 700 ft.
Cloud layer few clouds 1,500 ft.
Temperature 41°F
Dewpoint 34°F
Altimeter 29.81 in.Hg
Derived measurements
Relative humidity 75%
Wind chill 35°F
Density altitude -948 ft.
Sea-level pressure 29.81 in.Hg
METAR CWEU 231300Z 15008KT 15SM FEW007 FEW015 05/01 A2981 RMK SC1SC1 SC TR SC TR SLP096

Settings

Location code

InnerDrive.Weather 4.0.6770.0 Release CLR 4.0.30319.42000
Copyright ©2018 Inner Drive Technology. All rights reserved. Portions Copyright ©1986-2018 David Braverman.

Find weather

Site navigation


Skip Navigation Links

Place info

Page info

PayPal - The safer, easier way to pay online!

Return home.

Copyright ©2018 Inner Drive Technology. Purveyors of fine, hand-crafted computer software. Page printed 2018-07-23T13:14:33 UTC.